AUF weather

Auxerre-Branches Airport
Auxerre/Branches, Bourgogne-Franche-Comté, France

Public forecast

Using degrees Celsius for public forecast. Weather courtesy of forecast.io.

Closest aviation weather report (METAR) to Auxerre-Branches Airport

Closest report is Troyes-Barberey Airport, 35.2 nm (65.1 km) NE. Retrieved 2020/06/01 05:30 UTC (1 hour ago):

LFQB 010530Z AUTO VRB03KT CAVOK 13/07 Q1018

Closest aviation forecast (TAF) to Auxerre-Branches Airport

Forecast is more than 12 hours old.

Closest forecast is Avord (BA 702) Air Base, 59.3 nm (109.9 km) SW. Retrieved 2020/05/29 15:00 UTC (3 days ago):

TAF LFOA 291453Z 2915/3015 CNL